createdAt,value
2017-06-01T00:00:56.488Z,15.10
2017-06-01T00:01:56.419Z,15.30
2017-06-01T00:02:56.375Z,15.40
2017-06-01T00:03:56.229Z,15.50
2017-06-01T00:04:56.152Z,15.50
2017-06-01T00:05:56.069Z,15.50
2017-06-01T00:06:56.020Z,15.40
2017-06-01T00:07:56.031Z,15.30
2017-06-01T00:08:55.971Z,15.20
2017-06-01T00:09:55.924Z,15.10
2017-06-01T00:10:55.864Z,15.00
2017-06-01T00:11:55.818Z,15.00
2017-06-01T00:14:48.016Z,14.80
2017-06-01T00:15:47.912Z,14.80
2017-06-01T00:16:47.853Z,14.80
2017-06-01T00:17:47.793Z,14.80
2017-06-01T00:18:47.722Z,14.70
2017-06-01T00:19:47.577Z,14.70
2017-06-01T00:20:47.487Z,14.70
2017-06-01T00:21:47.388Z,14.70
2017-06-01T00:22:47.297Z,14.70
2017-06-01T00:23:47.236Z,14.60
2017-06-01T00:24:47.139Z,14.50
2017-06-01T00:25:47.048Z,14.60
2017-06-01T00:26:46.952Z,14.60
2017-06-01T00:31:31.080Z,15.00
2017-06-01T00:32:30.957Z,15.00
2017-06-01T00:33:30.860Z,15.00
2017-06-01T00:34:30.799Z,15.00
2017-06-01T00:35:30.738Z,15.10
2017-06-01T00:36:30.738Z,15.10
2017-06-01T00:37:30.624Z,15.10
2017-06-01T00:38:30.572Z,15.20
2017-06-01T00:39:30.473Z,15.30
2017-06-01T00:40:30.353Z,15.40
2017-06-01T00:41:30.260Z,15.30
2017-06-01T00:46:14.031Z,15.10
2017-06-01T00:47:13.943Z,15.20
2017-06-01T00:48:13.906Z,15.20
2017-06-01T00:49:13.776Z,15.20
2017-06-01T00:50:13.723Z,15.20
2017-06-01T00:51:13.598Z,15.10
2017-06-01T00:52:13.490Z,15.00
2017-06-01T00:53:13.371Z,15.00
2017-06-01T00:54:13.271Z,15.00
2017-06-01T00:55:13.220Z,14.90
2017-06-01T00:56:13.104Z,14.90
2017-06-01T01:12:22.898Z,14.80
2017-06-01T01:13:22.817Z,14.90
2017-06-01T01:14:22.717Z,14.80
2017-06-01T01:15:22.567Z,14.90
2017-06-01T01:16:22.491Z,14.90
2017-06-01T01:17:22.411Z,14.90
2017-06-01T01:18:22.372Z,15.00
2017-06-01T01:19:22.224Z,14.90
2017-06-01T01:20:22.114Z,14.80
2017-06-01T01:21:22.033Z,14.80
2017-06-01T01:22:22.002Z,14.80
2017-06-01T01:23:21.936Z,14.80
2017-06-01T01:24:21.817Z,15.00
2017-06-01T01:25:21.707Z,14.90
2017-06-01T01:26:21.574Z,14.90
2017-06-01T01:35:13.234Z,14.90
2017-06-01T01:36:13.168Z,14.90
2017-06-01T01:37:13.104Z,15.00
2017-06-01T01:38:13.024Z,15.00
2017-06-01T01:39:12.970Z,15.00
2017-06-01T01:40:12.899Z,14.90
2017-06-01T01:41:12.805Z,14.80
2017-06-01T01:42:12.720Z,14.80
2017-06-01T02:01:51.528Z,14.70
2017-06-01T02:02:51.497Z,14.80
2017-06-01T02:03:51.446Z,14.90
2017-06-01T02:04:51.333Z,14.90
2017-06-01T02:05:51.299Z,14.90
2017-06-01T02:06:51.219Z,14.90
2017-06-01T02:07:51.168Z,14.80
2017-06-01T02:08:51.116Z,14.80
2017-06-01T02:09:51.002Z,14.70
2017-06-01T02:10:50.927Z,14.80
2017-06-01T02:11:50.832Z,14.70
2017-06-01T02:12:50.705Z,14.70
2017-06-01T02:13:50.599Z,14.80
2017-06-01T02:14:50.542Z,14.70
2017-06-01T02:15:50.500Z,14.60
2017-06-01T02:16:50.445Z,14.60
2017-06-01T02:17:50.374Z,14.50
2017-06-01T02:18:50.318Z,14.60
2017-06-01T02:19:50.276Z,14.60
2017-06-01T02:20:50.197Z,14.80
2017-06-01T02:21:50.091Z,14.80
2017-06-01T02:22:50.018Z,14.90
2017-06-01T02:23:49.930Z,14.80
2017-06-01T02:24:49.863Z,14.70
2017-06-01T02:25:49.797Z,14.60
2017-06-01T02:26:49.732Z,14.50
2017-06-01T02:27:49.641Z,14.60
2017-06-01T02:28:49.519Z,14.70
2017-06-01T02:29:49.433Z,14.90
2017-06-01T02:30:49.312Z,14.90
2017-06-01T02:31:49.241Z,15.00
2017-06-01T02:32:49.167Z,15.00
2017-06-01T02:33:49.046Z,15.00
2017-06-01T02:34:48.983Z,15.00
2017-06-01T02:35:48.927Z,14.90
2017-06-01T02:36:48.809Z,14.90
2017-06-01T02:37:48.810Z,15.00
2017-06-01T02:38:49.439Z,14.90
2017-06-01T02:39:49.405Z,14.70
2017-06-01T02:40:49.365Z,14.70
2017-06-01T02:41:49.294Z,14.70
2017-06-01T02:42:49.250Z,14.80
2017-06-01T02:43:49.175Z,14.80
2017-06-01T02:44:49.132Z,14.80
2017-06-01T02:45:49.130Z,14.80
2017-06-01T02:46:49.058Z,14.70
2017-06-01T02:47:49.027Z,14.60
2017-06-01T02:48:48.944Z,14.50
2017-06-01T02:49:48.932Z,14.40
2017-06-01T02:50:48.887Z,14.40
2017-06-01T02:51:48.819Z,14.40
2017-06-01T02:52:48.698Z,14.40
2017-06-01T02:53:48.574Z,14.40
2017-06-01T02:54:48.457Z,14.40
2017-06-01T02:55:48.408Z,14.40
2017-06-01T02:56:48.320Z,14.40
2017-06-01T03:03:28.273Z,14.30
2017-06-01T03:04:28.182Z,14.30
2017-06-01T03:05:28.149Z,14.30
2017-06-01T03:06:28.129Z,14.20
2017-06-01T03:07:28.049Z,14.20
2017-06-01T03:08:28.052Z,14.30
2017-06-01T03:09:27.987Z,14.30
2017-06-01T03:10:27.983Z,14.40
2017-06-01T03:11:28.384Z,14.50
2017-06-01T03:15:34.772Z,14.80
2017-06-01T03:16:35.278Z,14.90
2017-06-01T03:17:36.550Z,14.90
2017-06-01T03:18:37.293Z,14.90
2017-06-01T03:19:37.481Z,15.00
2017-06-01T03:20:38.225Z,15.00
2017-06-01T03:21:38.999Z,15.00
2017-06-01T03:22:39.454Z,15.10
2017-06-01T03:23:39.896Z,15.10
2017-06-01T03:24:40.124Z,14.90
2017-06-01T03:25:41.407Z,14.90
2017-06-01T03:26:42.120Z,14.90
2017-06-01T03:27:42.918Z,14.90
2017-06-01T03:28:43.440Z,14.90
2017-06-01T03:29:45.414Z,14.80
2017-06-01T03:30:45.871Z,14.80
2017-06-01T03:31:46.902Z,14.70
2017-06-01T03:32:47.289Z,14.80
2017-06-01T03:33:48.030Z,14.80
2017-06-01T03:34:49.730Z,14.80
2017-06-01T03:35:50.194Z,14.70
2017-06-01T03:36:50.679Z,14.70
2017-06-01T03:37:51.666Z,14.70
2017-06-01T03:38:52.001Z,14.70
2017-06-01T03:39:53.209Z,14.70
2017-06-01T03:40:53.957Z,14.70
2017-06-01T03:41:55.472Z,14.70
2017-06-01T03:52:35.822Z,14.80
2017-06-01T03:53:37.624Z,14.70
2017-06-01T03:54:38.155Z,14.60
2017-06-01T03:55:38.108Z,14.50
2017-06-01T03:56:38.348Z,14.50
2017-06-01T03:59:29.966Z,14.60
2017-06-01T04:00:30.326Z,14.50
2017-06-01T04:01:30.522Z,14.60
2017-06-01T04:02:31.472Z,14.60
2017-06-01T04:03:31.365Z,14.60
2017-06-01T04:04:31.300Z,14.60
2017-06-01T04:05:31.194Z,14.80
2017-06-01T04:06:31.151Z,14.60
2017-06-01T04:07:31.103Z,14.50
2017-06-01T04:08:31.549Z,14.50
2017-06-01T04:09:32.039Z,14.50
2017-06-01T04:10:32.353Z,14.60
2017-06-01T04:11:32.560Z,14.60
2017-06-01T04:12:32.740Z,14.60
2017-06-01T04:17:53.423Z,14.70
2017-06-01T04:18:53.688Z,14.90
2017-06-01T04:19:54.236Z,14.80
2017-06-01T04:20:54.953Z,14.90
2017-06-01T04:21:55.765Z,14.90
2017-06-01T04:22:56.416Z,14.80
2017-06-01T04:23:56.843Z,14.70
2017-06-01T04:24:57.761Z,14.90
2017-06-01T04:26:03.319Z,15.10
2017-06-01T04:27:04.037Z,15.20
2017-06-01T04:32:22.536Z,15.40
2017-06-01T04:33:22.985Z,15.00
2017-06-01T04:34:24.443Z,14.90
2017-06-01T04:35:24.874Z,14.90
2017-06-01T04:36:25.042Z,15.10
2017-06-01T04:37:25.849Z,15.20
2017-06-01T04:38:26.280Z,15.30
2017-06-01T04:39:26.163Z,15.40
2017-06-01T04:40:26.602Z,15.50
2017-06-01T04:41:27.132Z,15.20
2017-06-01T04:42:27.481Z,15.00
2017-06-01T04:43:29.058Z,14.90
2017-06-01T04:44:29.979Z,14.90
2017-06-01T04:45:31.002Z,14.90
2017-06-01T04:46:31.458Z,14.90
2017-06-01T04:47:33.035Z,14.90
2017-06-01T04:48:33.649Z,14.90
2017-06-01T04:49:34.651Z,14.90
2017-06-01T04:50:35.844Z,14.80
2017-06-01T04:51:36.561Z,14.90
2017-06-01T04:52:37.163Z,14.90
2017-06-01T04:53:37.828Z,15.00
2017-06-01T04:54:38.515Z,15.00
2017-06-01T04:55:39.304Z,15.10
2017-06-01T04:56:40.796Z,15.10
2017-06-01T04:57:41.678Z,15.20
2017-06-01T05:11:48.424Z,16.00
2017-06-01T05:12:48.852Z,16.30
2017-06-01T05:13:48.709Z,16.70
2017-06-01T05:14:48.590Z,17.00
2017-06-01T05:15:48.476Z,17.30
2017-06-01T05:16:48.376Z,17.50
2017-06-01T05:17:48.552Z,17.60
2017-06-01T05:18:48.840Z,17.80
2017-06-01T05:19:48.703Z,17.90
2017-06-01T05:20:48.585Z,17.90
2017-06-01T05:21:48.780Z,18.30
2017-06-01T05:22:48.707Z,18.80
2017-06-01T05:23:48.605Z,19.20
2017-06-01T05:24:48.487Z,19.60
2017-06-01T05:25:48.418Z,19.80
2017-06-01T05:26:50.403Z,20.20
2017-06-01T05:31:35.859Z,22.40
2017-06-01T05:32:37.878Z,23.00
2017-06-01T05:33:39.795Z,23.50
2017-06-01T05:34:40.838Z,23.90
2017-06-01T05:35:41.353Z,23.90
2017-06-01T05:36:41.847Z,24.20
2017-06-01T05:37:43.012Z,24.30
2017-06-01T05:38:44.385Z,24.10
2017-06-01T05:39:45.130Z,23.80
2017-06-01T05:40:45.131Z,23.70
2017-06-01T05:41:45.302Z,24.00
2017-06-01T05:42:46.302Z,24.00
2017-06-01T05:43:46.805Z,24.20
2017-06-01T05:44:46.744Z,24.70
2017-06-01T05:45:46.770Z,24.70
2017-06-01T05:46:47.195Z,25.20
2017-06-01T05:47:47.279Z,25.20
2017-06-01T05:48:47.453Z,25.20
2017-06-01T05:49:48.124Z,25.30
2017-06-01T05:50:48.285Z,25.60
2017-06-01T05:51:48.315Z,25.40
2017-06-01T05:52:48.747Z,25.40
2017-06-01T05:53:49.236Z,25.70
2017-06-01T05:54:49.712Z,25.80
2017-06-01T05:55:50.478Z,25.60
2017-06-01T05:56:50.489Z,25.80
2017-06-01T05:57:50.387Z,25.90
2017-06-01T05:58:50.366Z,25.70
2017-06-01T05:59:50.252Z,25.60
2017-06-01T06:00:50.166Z,25.70
2017-06-01T06:01:50.112Z,26.00
2017-06-01T06:02:50.051Z,26.20
2017-06-01T06:03:50.070Z,26.20
2017-06-01T06:04:50.007Z,26.40
2017-06-01T06:05:49.953Z,26.50
2017-06-01T06:06:49.821Z,26.70
2017-06-01T06:07:49.771Z,26.60
2017-06-01T06:08:49.750Z,26.70
2017-06-01T06:09:49.649Z,26.50
2017-06-01T06:10:49.557Z,26.60
2017-06-01T06:11:50.052Z,26.70
2017-06-01T06:12:50.065Z,26.90
2017-06-01T06:13:50.034Z,26.80
2017-06-01T06:14:49.916Z,26.70
2017-06-01T06:15:49.840Z,25.90
2017-06-01T06:16:50.017Z,26.00
2017-06-01T06:17:49.909Z,26.20
2017-06-01T06:18:50.251Z,26.00
2017-06-01T06:19:50.658Z,25.60
2017-06-01T06:20:50.596Z,25.60
2017-06-01T06:21:50.690Z,25.50
2017-06-01T06:22:50.908Z,25.50
2017-06-01T06:23:51.156Z,25.40
2017-06-01T06:24:51.496Z,25.30
2017-06-01T06:25:52.136Z,25.00
2017-06-01T06:26:52.296Z,24.60
2017-06-01T06:27:53.091Z,24.40
2017-06-01T06:28:53.756Z,24.20
2017-06-01T06:29:54.711Z,23.90
2017-06-01T06:30:55.457Z,23.60
2017-06-01T06:31:56.161Z,23.40
2017-06-01T06:32:59.208Z,23.20
2017-06-01T06:33:59.792Z,22.70
2017-06-01T06:35:00.756Z,22.20
2017-06-01T06:36:01.553Z,22.20
2017-06-01T06:37:03.031Z,21.90
2017-06-01T06:38:03.825Z,21.80
2017-06-01T06:39:05.212Z,21.50
2017-06-01T06:40:07.815Z,21.50
2017-06-01T06:41:09.302Z,21.60
2017-06-01T06:42:10.832Z,21.70
2017-06-01T06:43:11.513Z,21.50
2017-06-01T06:44:11.429Z,21.50
2017-06-01T06:45:11.363Z,21.50
2017-06-01T06:46:11.291Z,21.10
2017-06-01T06:47:11.208Z,21.30
2017-06-01T06:48:11.630Z,21.50
2017-06-01T06:49:11.746Z,21.50
2017-06-01T06:50:11.674Z,21.30
2017-06-01T06:51:11.569Z,21.10
2017-06-01T06:52:11.978Z,21.00
2017-06-01T06:53:12.586Z,21.10
2017-06-01T06:54:13.352Z,21.30
2017-06-01T06:55:14.284Z,21.50
2017-06-01T06:56:14.965Z,21.30
2017-06-01T06:57:15.467Z,21.50
2017-06-01T06:58:16.406Z,21.70
2017-06-01T06:59:18.622Z,21.90
2017-06-01T07:00:19.337Z,22.10
2017-06-01T07:01:20.249Z,21.90
2017-06-01T07:02:22.691Z,22.00
2017-06-01T07:03:23.432Z,21.70
2017-06-01T07:04:24.256Z,22.00
2017-06-01T07:05:25.609Z,22.40
2017-06-01T07:06:26.365Z,22.40
2017-06-01T07:07:27.742Z,22.30
2017-06-01T07:08:28.818Z,22.20
2017-06-01T07:09:29.733Z,22.40
2017-06-01T07:10:30.468Z,22.60
2017-06-01T07:11:30.899Z,22.50
2017-06-01T07:12:31.686Z,22.40
2017-06-01T07:13:32.467Z,22.30
2017-06-01T07:14:33.483Z,22.10
2017-06-01T07:15:36.426Z,22.10
2017-06-01T07:16:37.097Z,22.10
2017-06-01T07:17:38.086Z,22.30
2017-06-01T07:18:39.208Z,22.60
2017-06-01T07:19:44.071Z,22.70
2017-06-01T07:20:48.816Z,22.80
2017-06-01T07:21:50.546Z,23.10
2017-06-01T07:22:52.794Z,23.30
2017-06-01T07:23:53.531Z,23.30
2017-06-01T07:24:54.495Z,23.30
2017-06-01T07:25:55.249Z,23.30
2017-06-01T07:26:55.778Z,23.70
2017-06-01T07:28:13.280Z,23.40
2017-06-01T07:29:13.542Z,23.50
2017-06-01T07:30:13.931Z,23.50
2017-06-01T07:31:14.579Z,23.50
2017-06-01T07:32:16.617Z,23.10
2017-06-01T07:33:16.808Z,22.90
2017-06-01T07:34:18.542Z,23.20
2017-06-01T07:35:19.738Z,23.50
2017-06-01T07:36:20.492Z,23.60
2017-06-01T07:37:25.824Z,23.40
2017-06-01T07:38:28.287Z,23.40
2017-06-01T07:39:28.983Z,23.30
2017-06-01T07:40:29.502Z,23.60
2017-06-01T07:41:30.524Z,23.80
2017-06-01T07:42:31.468Z,24.00
2017-06-01T07:43:32.421Z,24.10
2017-06-01T07:44:33.145Z,24.10
2017-06-01T07:45:33.855Z,23.70
2017-06-01T07:46:35.154Z,23.40
2017-06-01T07:47:37.451Z,23.00
2017-06-01T07:48:38.244Z,22.80
2017-06-01T07:49:38.928Z,22.70
2017-06-01T07:50:39.685Z,22.70
2017-06-01T07:51:39.544Z,22.20
2017-06-01T07:52:39.464Z,22.20
2017-06-01T07:53:39.382Z,22.10
2017-06-01T07:54:39.280Z,21.90
2017-06-01T07:55:39.209Z,21.80
2017-06-01T07:56:39.039Z,21.90
2017-06-01T07:57:38.910Z,21.90
2017-06-01T08:04:14.632Z,23.10
2017-06-01T08:05:14.533Z,22.70
2017-06-01T08:06:14.375Z,22.80
2017-06-01T08:07:14.224Z,23.00
2017-06-01T08:08:14.097Z,23.10
2017-06-01T08:09:13.985Z,23.20
2017-06-01T08:10:13.924Z,22.90
2017-06-01T08:11:13.789Z,22.70
2017-06-01T08:12:13.659Z,22.80
2017-06-01T08:13:21.707Z,22.70
2017-06-01T08:14:21.607Z,22.70
2017-06-01T08:15:21.737Z,22.80
2017-06-01T08:16:21.695Z,23.00
2017-06-01T08:17:21.566Z,23.10
2017-06-01T08:18:21.476Z,23.30
2017-06-01T08:19:21.406Z,23.40
2017-06-01T08:20:21.277Z,23.40
2017-06-01T08:21:21.247Z,23.30
2017-06-01T08:22:21.130Z,23.50
2017-06-01T08:23:21.041Z,23.70
2017-06-01T08:24:20.992Z,23.40
2017-06-01T08:25:21.182Z,23.30
2017-06-01T08:26:21.085Z,23.20
2017-06-01T08:27:21.047Z,23.30
2017-06-01T08:28:21.555Z,23.40
2017-06-01T08:29:21.684Z,23.60
2017-06-01T08:30:21.924Z,23.70
2017-06-01T08:31:21.785Z,23.80
2017-06-01T08:32:22.217Z,23.90
2017-06-01T08:33:22.341Z,24.00
2017-06-01T08:34:22.178Z,24.10
2017-06-01T08:35:22.078Z,24.10
2017-06-01T08:36:22.009Z,23.80
2017-06-01T08:37:21.886Z,23.80
2017-06-01T08:38:21.740Z,23.90
2017-06-01T08:39:21.595Z,24.00
2017-06-01T08:40:21.557Z,24.00
2017-06-01T08:41:21.688Z,24.00
2017-06-01T08:42:21.583Z,23.90
2017-06-01T08:47:26.376Z,24.00
2017-06-01T08:48:26.221Z,24.00
2017-06-01T08:49:26.375Z,24.00
2017-06-01T08:50:26.286Z,23.90
2017-06-01T08:51:26.480Z,24.00
2017-06-01T08:52:26.634Z,24.00
2017-06-01T08:53:26.546Z,23.90
2017-06-01T08:54:26.436Z,23.90
2017-06-01T08:55:26.609Z,23.90
2017-06-01T08:56:26.467Z,24.00
2017-06-01T08:57:26.356Z,24.20
2017-06-01T08:58:48.279Z,24.30
2017-06-01T08:59:49.987Z,24.40
2017-06-01T09:00:51.551Z,24.50
2017-06-01T09:01:51.570Z,24.50
2017-06-01T09:02:52.030Z,24.60
2017-06-01T09:03:51.865Z,24.70
2017-06-01T09:04:51.766Z,24.70
2017-06-01T09:05:51.986Z,24.80
2017-06-01T09:06:51.952Z,24.50
2017-06-01T09:07:51.856Z,24.50
2017-06-01T09:08:51.768Z,24.30
2017-06-01T09:09:51.929Z,24.30
2017-06-01T09:10:52.066Z,24.30
2017-06-01T09:11:52.023Z,24.40
2017-06-01T09:12:51.959Z,24.70
2017-06-01T09:13:51.853Z,24.80
2017-06-01T09:14:51.784Z,24.90
2017-06-01T09:15:52.003Z,24.70
2017-06-01T09:16:51.856Z,24.90
2017-06-01T09:17:51.872Z,25.00
2017-06-01T09:18:51.757Z,25.00
2017-06-01T09:19:51.592Z,25.10
2017-06-01T09:20:51.773Z,25.00
2017-06-01T09:21:51.727Z,24.60
2017-06-01T09:22:51.646Z,24.30
2017-06-01T09:23:51.525Z,24.40
2017-06-01T09:24:51.489Z,24.50
2017-06-01T09:25:51.380Z,24.60
2017-06-01T09:26:51.292Z,24.40
2017-06-01T09:27:51.203Z,24.30
2017-06-01T09:28:51.154Z,24.10
2017-06-01T09:29:51.311Z,24.20
2017-06-01T09:30:51.857Z,24.40
2017-06-01T09:31:52.011Z,24.50
2017-06-01T09:32:51.906Z,24.60
2017-06-01T09:33:51.844Z,24.80
2017-06-01T09:34:51.719Z,24.90
2017-06-01T09:35:51.681Z,25.20
2017-06-01T09:36:51.576Z,25.40
2017-06-01T09:37:51.656Z,25.50
2017-06-01T09:38:51.559Z,25.50
2017-06-01T09:39:51.499Z,25.50
2017-06-01T09:40:51.381Z,25.50
2017-06-01T09:41:51.316Z,25.50
2017-06-01T09:42:51.209Z,25.50
2017-06-01T09:45:43.464Z,25.70
2017-06-01T09:46:43.358Z,25.90
2017-06-01T09:47:43.252Z,26.00
2017-06-01T09:48:43.229Z,26.10
2017-06-01T09:49:43.130Z,26.20
2017-06-01T09:50:43.139Z,26.20
2017-06-01T09:51:43.079Z,26.30
2017-06-01T09:52:42.946Z,26.20
2017-06-01T09:53:42.823Z,26.20
2017-06-01T09:54:42.681Z,26.20
2017-06-01T09:55:42.515Z,26.20
2017-06-01T09:56:42.715Z,26.20
2017-06-01T09:57:42.671Z,26.40
2017-06-01T10:10:09.808Z,26.60
2017-06-01T10:11:09.768Z,26.80
2017-06-01T10:12:09.709Z,26.80
2017-06-01T10:13:09.603Z,26.60
2017-06-01T10:14:09.556Z,26.60
2017-06-01T10:15:09.496Z,26.70
2017-06-01T10:16:09.463Z,26.80
2017-06-01T10:17:09.397Z,26.90
2017-06-01T10:18:09.344Z,27.00
2017-06-01T10:19:09.307Z,27.00
2017-06-01T10:20:09.231Z,27.10
2017-06-01T10:21:09.194Z,27.20
2017-06-01T10:22:09.104Z,27.30
2017-06-01T10:23:09.051Z,27.20
2017-06-01T10:24:08.980Z,27.10
2017-06-01T10:25:09.040Z,27.10
2017-06-01T10:26:08.920Z,27.20
2017-06-01T10:27:08.863Z,27.10
2017-06-01T10:28:08.779Z,27.20
2017-06-01T10:29:08.808Z,27.30
2017-06-01T10:30:08.690Z,27.30
2017-06-01T10:31:08.638Z,27.40
2017-06-01T10:32:08.541Z,27.40
2017-06-01T10:33:08.438Z,27.30
2017-06-01T10:34:08.356Z,27.30
2017-06-01T10:35:08.313Z,27.50
2017-06-01T10:36:08.234Z,27.60
2017-06-01T10:37:08.137Z,27.80
2017-06-01T10:38:08.065Z,27.90
2017-06-01T10:39:07.949Z,28.00
2017-06-01T10:40:07.913Z,28.00
2017-06-01T10:41:07.812Z,28.10
2017-06-01T10:42:07.793Z,28.10
2017-06-01T10:43:07.699Z,28.00
2017-06-01T10:44:07.776Z,28.10
2017-06-01T10:45:07.653Z,28.10
2017-06-01T10:46:07.510Z,28.20
2017-06-01T10:47:07.705Z,28.30
2017-06-01T10:48:07.623Z,28.40
2017-06-01T10:49:07.522Z,28.50
2017-06-01T10:50:07.384Z,28.50
2017-06-01T10:51:07.535Z,28.60
2017-06-01T10:52:07.456Z,28.50
2017-06-01T10:53:07.654Z,28.50
2017-06-01T10:54:07.555Z,28.60
2017-06-01T10:55:07.875Z,28.70
2017-06-01T10:56:07.778Z,28.60
2017-06-01T10:57:07.864Z,28.40
2017-06-01T10:58:07.749Z,28.10
2017-06-01T10:59:23.995Z,28.10
2017-06-01T11:00:24.201Z,27.90
2017-06-01T11:01:24.392Z,27.80
2017-06-01T11:02:24.519Z,27.40
2017-06-01T11:03:24.397Z,27.30
2017-06-01T11:04:24.295Z,27.30
2017-06-01T11:05:24.970Z,27.10
2017-06-01T11:06:25.142Z,27.10
2017-06-01T11:07:25.328Z,26.70
2017-06-01T11:08:25.201Z,26.60
2017-06-01T11:09:25.612Z,26.50
2017-06-01T11:10:25.485Z,26.60
2017-06-01T11:11:25.908Z,26.60
2017-06-01T11:12:25.782Z,26.50
2017-06-01T11:13:25.672Z,26.50
2017-06-01T11:14:25.893Z,26.50
2017-06-01T11:15:25.783Z,26.50
2017-06-01T11:16:25.843Z,26.40
2017-06-01T11:17:26.296Z,26.60
2017-06-01T11:18:26.152Z,26.60
2017-06-01T11:19:26.346Z,26.80
2017-06-01T11:20:26.995Z,26.90
2017-06-01T11:21:26.944Z,27.10
2017-06-01T11:22:27.664Z,27.20
2017-06-01T11:23:28.012Z,27.30
2017-06-01T11:24:28.688Z,27.40
2017-06-01T11:25:29.108Z,27.10
2017-06-01T11:26:29.869Z,26.90
2017-06-01T11:27:29.758Z,26.50
2017-06-01T11:28:29.656Z,26.40
2017-06-01T11:29:30.075Z,26.30
2017-06-01T11:30:29.998Z,26.00
2017-06-01T11:31:29.905Z,25.50
2017-06-01T11:32:30.389Z,25.20
2017-06-01T11:33:30.310Z,24.90
2017-06-01T11:34:30.451Z,24.70
2017-06-01T11:35:30.617Z,24.30
2017-06-01T11:36:31.997Z,23.80
2017-06-01T11:37:32.944Z,23.30
2017-06-01T11:38:33.661Z,23.00
2017-06-01T11:39:37.347Z,22.90
2017-06-01T11:40:37.796Z,22.80
2017-06-01T11:41:38.476Z,22.80
2017-06-01T11:42:39.562Z,22.60
2017-06-01T11:43:40.227Z,22.50
2017-06-01T11:44:40.943Z,22.40
2017-06-01T11:45:41.611Z,22.30
2017-06-01T11:46:42.055Z,22.30
2017-06-01T11:47:42.745Z,22.20
2017-06-01T11:48:43.177Z,22.20
2017-06-01T11:49:43.135Z,22.10
2017-06-01T11:50:43.889Z,22.10
2017-06-01T11:51:44.304Z,22.10
2017-06-01T11:52:44.484Z,22.00
2017-06-01T11:53:45.359Z,22.00
2017-06-01T11:54:45.738Z,21.90
2017-06-01T11:55:46.181Z,21.90
2017-06-01T11:56:46.965Z,21.90
2017-06-01T11:57:48.107Z,21.90
2017-06-01T12:13:43.791Z,20.70
2017-06-01T12:14:43.822Z,20.60
2017-06-01T12:15:44.000Z,20.60
2017-06-01T12:16:44.023Z,20.50
2017-06-01T12:17:43.944Z,20.50
2017-06-01T12:18:43.836Z,20.50
2017-06-01T12:19:43.777Z,20.40
2017-06-01T12:20:43.732Z,20.30
2017-06-01T12:21:44.250Z,20.20
2017-06-01T12:22:44.469Z,20.20
2017-06-01T12:23:44.744Z,20.20
2017-06-01T12:24:45.196Z,20.20
2017-06-01T12:25:45.878Z,20.10
2017-06-01T12:26:45.823Z,20.10
2017-06-01T12:27:46.714Z,20.10
2017-06-01T12:28:47.660Z,20.00
2017-06-01T12:29:47.860Z,20.00
2017-06-01T12:30:48.168Z,20.00
2017-06-01T12:31:48.881Z,19.90
2017-06-01T12:32:49.558Z,19.90
2017-06-01T12:33:50.178Z,19.80
2017-06-01T12:34:50.953Z,19.80
2017-06-01T12:35:51.190Z,19.70
2017-06-01T12:36:51.848Z,19.70
2017-06-01T12:37:51.879Z,19.70
2017-06-01T12:38:52.177Z,19.70
2017-06-01T12:39:52.476Z,19.60
2017-06-01T12:40:52.741Z,19.60
2017-06-01T12:41:53.187Z,19.60
2017-06-01T12:42:53.352Z,19.70
2017-06-01T13:01:19.051Z,19.30
2017-06-01T13:02:19.349Z,19.30
2017-06-01T13:03:19.316Z,19.20
2017-06-01T13:04:19.302Z,19.20
2017-06-01T13:05:19.833Z,19.20
2017-06-01T13:06:20.140Z,19.20
2017-06-01T13:07:20.446Z,19.30
2017-06-01T13:08:20.412Z,19.30
2017-06-01T13:09:20.594Z,19.30
2017-06-01T13:10:21.117Z,19.30
2017-06-01T13:11:21.142Z,19.40
2017-06-01T13:12:21.499Z,19.30
2017-06-01T13:13:21.503Z,19.40
2017-06-01T13:18:26.165Z,19.30
2017-06-01T13:19:26.305Z,19.40
2017-06-01T13:20:27.066Z,19.30
2017-06-01T13:21:27.169Z,19.30
2017-06-01T13:22:27.698Z,19.30
2017-06-01T13:23:27.829Z,19.30
2017-06-01T13:24:27.999Z,19.30
2017-06-01T13:25:27.886Z,19.30
2017-06-01T13:26:27.952Z,19.30
2017-06-01T13:27:27.898Z,19.30
2017-06-01T13:28:27.780Z,19.30
2017-06-01T13:31:19.221Z,19.30
2017-06-01T13:32:19.180Z,19.30
2017-06-01T13:33:19.102Z,19.30
2017-06-01T13:34:19.298Z,19.30
2017-06-01T13:35:19.203Z,19.40
2017-06-01T13:36:19.072Z,19.30
2017-06-01T13:37:19.249Z,19.30
2017-06-01T13:38:19.452Z,19.40
2017-06-01T13:39:19.439Z,19.40
2017-06-01T13:40:19.865Z,19.40
2017-06-01T13:41:20.083Z,19.40
2017-06-01T13:42:20.223Z,19.30
2017-06-01T13:43:20.327Z,19.30
2017-06-01T13:44:20.356Z,19.30
2017-06-01T13:45:20.335Z,19.40
2017-06-01T13:46:20.288Z,19.50
2017-06-01T13:47:20.790Z,19.50
2017-06-01T13:48:20.689Z,19.60
2017-06-01T13:49:21.741Z,19.60
2017-06-01T13:50:21.920Z,19.60
2017-06-01T13:51:21.883Z,19.60
2017-06-01T13:52:21.831Z,19.60
2017-06-01T13:53:22.289Z,19.70
2017-06-01T13:54:22.965Z,19.70
2017-06-01T13:55:23.417Z,19.70
2017-06-01T13:56:23.325Z,19.70
2017-06-01T13:57:23.565Z,19.80
2017-06-01T13:58:23.887Z,19.70
2017-06-01T14:14:19.041Z,20.10
2017-06-01T14:15:18.947Z,20.10
2017-06-01T14:16:18.896Z,20.10
2017-06-01T14:17:19.084Z,20.10
2017-06-01T14:18:19.127Z,20.10
2017-06-01T14:19:19.386Z,20.00
2017-06-01T14:20:19.809Z,20.00
2017-06-01T14:21:19.680Z,19.90
2017-06-01T14:22:19.846Z,19.90
2017-06-01T14:23:19.965Z,19.90
2017-06-01T14:24:19.869Z,19.90
2017-06-01T14:25:20.023Z,19.80
2017-06-01T14:26:19.966Z,19.80
2017-06-01T14:27:20.418Z,19.80
2017-06-01T14:28:20.848Z,19.80
2017-06-01T14:29:21.603Z,19.90
2017-06-01T14:30:23.452Z,19.90
2017-06-01T14:31:25.457Z,19.90
2017-06-01T14:32:27.485Z,19.90
2017-06-01T14:33:27.817Z,19.80
2017-06-01T14:34:28.029Z,19.90
2017-06-01T14:35:29.756Z,19.90
2017-06-01T14:36:29.775Z,19.80
2017-06-01T14:37:29.685Z,19.80
2017-06-01T14:38:30.112Z,19.70
2017-06-01T14:39:30.116Z,19.70
2017-06-01T14:40:30.229Z,19.70
2017-06-01T14:41:30.757Z,19.70
2017-06-01T14:42:30.655Z,19.70
2017-06-01T14:43:30.844Z,19.70
2017-06-01T14:50:06.646Z,19.70
2017-06-01T14:51:07.027Z,19.80
2017-06-01T14:52:08.147Z,19.80
2017-06-01T14:53:08.465Z,19.80
2017-06-01T14:54:08.915Z,19.80
2017-06-01T14:55:08.793Z,19.70
2017-06-01T14:56:09.030Z,19.70
2017-06-01T14:57:09.113Z,19.70
2017-06-01T14:58:09.126Z,19.60
2017-06-01T14:59:09.166Z,19.50
2017-06-01T15:00:09.321Z,19.40
2017-06-01T15:01:09.658Z,19.30
2017-06-01T15:02:09.801Z,19.20
2017-06-01T15:03:09.676Z,19.20
2017-06-01T15:04:09.757Z,19.10
2017-06-01T15:05:10.243Z,19.00
2017-06-01T15:06:10.163Z,18.90
2017-06-01T15:07:10.291Z,18.90
2017-06-01T15:08:10.869Z,18.80
2017-06-01T15:09:10.821Z,18.70
2017-06-01T15:10:11.208Z,18.70
2017-06-01T15:11:11.382Z,18.70
2017-06-01T15:12:11.798Z,18.60
2017-06-01T15:13:12.231Z,18.60
2017-06-01T15:14:12.253Z,18.50
2017-06-01T15:15:12.168Z,18.50
2017-06-01T15:16:12.913Z,18.40
2017-06-01T15:17:13.103Z,18.40
2017-06-01T15:18:13.269Z,18.40
2017-06-01T15:19:13.307Z,18.30
2017-06-01T15:20:13.538Z,18.30
2017-06-01T15:21:13.543Z,18.30
2017-06-01T15:22:13.641Z,18.30
2017-06-01T15:23:14.057Z,18.30
2017-06-01T15:24:13.979Z,18.30
2017-06-01T15:25:13.849Z,18.30
2017-06-01T15:26:13.739Z,18.30
2017-06-01T15:27:13.569Z,18.20
2017-06-01T15:28:13.495Z,18.20
2017-06-01T15:29:13.631Z,18.20
2017-06-01T15:33:43.544Z,18.10
2017-06-01T15:36:12.836Z,18.10
2017-06-01T15:38:42.037Z,18.10
2017-06-01T15:41:11.191Z,18.10
2017-06-01T15:43:40.180Z,18.10
2017-06-01T15:46:09.389Z,18.10
2017-06-01T15:48:38.559Z,18.10
2017-06-01T15:51:07.551Z,18.00
2017-06-01T15:53:36.787Z,17.90
2017-06-01T15:56:05.995Z,17.90
2017-06-01T15:58:35.166Z,17.90
2017-06-01T16:01:04.545Z,17.80
2017-06-01T16:03:33.708Z,17.80
2017-06-01T16:06:02.921Z,17.70
2017-06-01T16:08:32.123Z,17.70
2017-06-01T16:11:01.326Z,17.60
2017-06-01T16:13:30.495Z,17.60
